Terminal Aerodrome Forecast
Issued by NWS Lake Charles, LA

Home | Current Version | Previous Version | Text Only | Print | Product List | Glossary On
Versions: 1 2 3 4 5 6 7 8 9 10 11 12 13 14 15 16 17 18 19 20 21 22 23 24 25
000
FTUS44 KLCH 042300
TAFLCH
TAF
KLCH 042325Z 0500/0524 18007KT P6SM VCSH SCT007 BKN015
     FM050200 18005KT 4SM BR VCSH OVC007
     FM050700 35010G16KT 4SM RA BR OVC007
     FM051000 01022G30KT P6SM -RA OVC007
     FM052100 02022G30KT P6SM BKN015=

USA.gov is the U.S. government's official web portal to all federal, state and local government web resources and services.